sensor_id;sensor_type;location;lat;lon;timestamp;pressure;altitude;pressure_sealevel;temperature;humidity
61674;BME280;47573;43.832;5.974;2023-01-23T00:03:31;95210.38;;;18.71;68.91
61674;BME280;47573;43.832;5.974;2023-01-23T00:10:13;95199.59;;;18.64;68.56
61674;BME280;47573;43.832;5.974;2023-01-23T00:16:54;95195.06;;;18.58;68.79
61674;BME280;47573;43.832;5.974;2023-01-23T00:23:34;95204.47;;;18.49;68.48
61674;BME280;47573;43.832;5.974;2023-01-23T00:30:17;95194.97;;;18.40;68.22
61674;BME280;47573;43.832;5.974;2023-01-23T00:36:57;95189.34;;;18.35;68.22
61674;BME280;47573;43.832;5.974;2023-01-23T00:43:38;95166.97;;;18.28;67.89
61674;BME280;47573;43.832;5.974;2023-01-23T00:50:19;95157.03;;;18.22;67.57
61674;BME280;47573;43.832;5.974;2023-01-23T00:57:00;95157.88;;;18.16;67.21
61674;BME280;47573;43.832;5.974;2023-01-23T01:03:41;95158.75;;;18.10;67.03
61674;BME280;47573;43.832;5.974;2023-01-23T01:10:23;95162.91;;;18.06;66.77
61674;BME280;47573;43.832;5.974;2023-01-23T01:17:04;95158.38;;;18.00;66.58
61674;BME280;47573;43.832;5.974;2023-01-23T01:23:44;95169.22;;;17.93;66.54
61674;BME280;47573;43.832;5.974;2023-01-23T01:30:26;95171.53;;;17.90;66.43
61674;BME280;47573;43.832;5.974;2023-01-23T01:37:07;95175.09;;;17.84;66.28
61674;BME280;47573;43.832;5.974;2023-01-23T01:43:47;95175.50;;;17.81;66.20
61674;BME280;47573;43.832;5.974;2023-01-23T01:50:29;95188.84;;;17.76;66.59
61674;BME280;47573;43.832;5.974;2023-01-23T01:57:13;95168.47;;;17.73;66.46
61674;BME280;47573;43.832;5.974;2023-01-23T02:03:55;95180.38;;;17.65;66.36
61674;BME280;47573;43.832;5.974;2023-01-23T02:10:38;95174.34;;;17.63;66.25
61674;BME280;47573;43.832;5.974;2023-01-23T02:17:19;95191.41;;;17.57;66.36
61674;BME280;47573;43.832;5.974;2023-01-23T02:24:09;95183.28;;;17.57;66.14
61674;BME280;47573;43.832;5.974;2023-01-23T02:30:52;95193.88;;;17.52;66.47
61674;BME280;47573;43.832;5.974;2023-01-23T02:37:33;95194.72;;;17.46;66.64
61674;BME280;47573;43.832;5.974;2023-01-23T02:44:18;95177.28;;;17.42;66.43
61674;BME280;47573;43.832;5.974;2023-01-23T02:51:00;95172.50;;;17.38;66.46
61674;BME280;47573;43.832;5.974;2023-01-23T02:57:40;95164.03;;;17.34;66.27
61674;BME280;47573;43.832;5.974;2023-01-23T03:04:21;95166.94;;;17.26;66.09
61674;BME280;47573;43.832;5.974;2023-01-23T03:11:03;95169.03;;;17.24;65.95
61674;BME280;47573;43.832;5.974;2023-01-23T03:17:44;95178.56;;;17.20;65.93
61674;BME280;47573;43.832;5.974;2023-01-23T03:24:24;95162.81;;;17.17;65.93
61674;BME280;47573;43.832;5.974;2023-01-23T03:31:06;95166.97;;;17.13;66.03
61674;BME280;47573;43.832;5.974;2023-01-23T03:37:48;95152.84;;;17.11;65.88
61674;BME280;47573;43.832;5.974;2023-01-23T03:44:28;95141.00;;;17.06;66.04
61674;BME280;47573;43.832;5.974;2023-01-23T03:51:10;95135.84;;;17.04;66.09
61674;BME280;47573;43.832;5.974;2023-01-23T03:57:51;95123.19;;;16.98;66.14
61674;BME280;47573;43.832;5.974;2023-01-23T04:04:32;95121.75;;;16.96;66.11
61674;BME280;47573;43.832;5.974;2023-01-23T04:11:14;95117.63;;;16.93;66.01
61674;BME280;47573;43.832;5.974;2023-01-23T04:17:54;95116.34;;;16.89;66.19
61674;BME280;47573;43.832;5.974;2023-01-23T04:24:34;95101.63;;;16.85;66.30
61674;BME280;47573;43.832;5.974;2023-01-23T04:31:16;95099.78;;;16.85;66.21
61674;BME280;47573;43.832;5.974;2023-01-23T04:37:57;95094.41;;;16.79;66.29
61674;BME280;47573;43.832;5.974;2023-01-23T04:44:37;95091.91;;;16.77;66.24
61674;BME280;47573;43.832;5.974;2023-01-23T04:51:19;95081.13;;;16.71;66.22
61674;BME280;47573;43.832;5.974;2023-01-23T04:58:00;95079.06;;;16.73;66.41
61674;BME280;47573;43.832;5.974;2023-01-23T05:04:40;95074.50;;;16.67;66.40
61674;BME280;47573;43.832;5.974;2023-01-23T05:11:22;95073.88;;;16.65;66.20
61674;BME280;47573;43.832;5.974;2023-01-23T05:18:03;95060.84;;;16.62;66.34
61674;BME280;47573;43.832;5.974;2023-01-23T05:24:44;95061.25;;;16.59;66.33
61674;BME280;47573;43.832;5.974;2023-01-23T05:31:26;95049.25;;;16.55;66.35
61674;BME280;47573;43.832;5.974;2023-01-23T05:38:06;95043.44;;;16.51;66.30
61674;BME280;47573;43.832;5.974;2023-01-23T05:44:46;95042.59;;;16.51;66.19
61674;BME280;47573;43.832;5.974;2023-01-23T05:51:28;95042.97;;;16.48;66.11
61674;BME280;47573;43.832;5.974;2023-01-23T05:58:09;95041.13;;;16.42;66.17
61674;BME280;47573;43.832;5.974;2023-01-23T06:04:50;95040.50;;;16.40;66.04
61674;BME280;47573;43.832;5.974;2023-01-23T06:11:32;95039.25;;;16.36;65.88
61674;BME280;47573;43.832;5.974;2023-01-23T06:18:12;95041.34;;;16.34;65.90
61674;BME280;47573;43.832;5.974;2023-01-23T06:24:53;95040.09;;;16.30;65.87
61674;BME280;47573;43.832;5.974;2023-01-23T06:31:35;95034.50;;;16.25;65.87
61674;BME280;47573;43.832;5.974;2023-01-23T06:38:15;95035.16;;;16.27;65.79
61674;BME280;47573;43.832;5.974;2023-01-23T06:44:56;95041.16;;;16.29;65.85
61674;BME280;47573;43.832;5.974;2023-01-23T06:51:38;95038.84;;;16.65;64.30
61674;BME280;47573;43.832;5.974;2023-01-23T06:58:18;95042.97;;;16.41;66.02
61674;BME280;47573;43.832;5.974;2023-01-23T07:04:58;95041.78;;;16.57;67.13
61674;BME280;47573;43.832;5.974;2023-01-23T07:11:40;95040.09;;;16.56;66.80
61674;BME280;47573;43.832;5.974;2023-01-23T07:18:21;95035.56;;;16.37;67.44
61674;BME280;47573;43.832;5.974;2023-01-23T07:25:02;95045.91;;;16.33;67.43
61674;BME280;47573;43.832;5.974;2023-01-23T07:31:44;95043.63;;;16.37;67.70
61674;BME280;47573;43.832;5.974;2023-01-23T07:38:24;95051.72;;;16.63;65.52
61674;BME280;47573;43.832;5.974;2023-01-23T07:45:05;95056.31;;;16.49;67.34
61674;BME280;47573;43.832;5.974;2023-01-23T07:51:47;95063.31;;;16.37;67.34
61674;BME280;47573;43.832;5.974;2023-01-23T07:58:28;95074.72;;;16.33;67.63
61674;BME280;47573;43.832;5.974;2023-01-23T08:05:08;95075.75;;;16.32;67.21
61674;BME280;47573;43.832;5.974;2023-01-23T08:11:51;95074.69;;;16.46;66.04
61674;BME280;47573;43.832;5.974;2023-01-23T08:18:32;95067.47;;;16.66;65.07
61674;BME280;47573;43.832;5.974;2023-01-23T08:25:13;95070.34;;;16.84;64.94
61674;BME280;47573;43.832;5.974;2023-01-23T08:31:54;95078.66;;;16.82;65.36
61674;BME280;47573;43.832;5.974;2023-01-23T08:38:35;95081.53;;;16.81;66.38
61674;BME280;47573;43.832;5.974;2023-01-23T08:45:15;95086.06;;;16.87;65.81
61674;BME280;47573;43.832;5.974;2023-01-23T08:51:57;95078.81;;;16.94;66.39
61674;BME280;47573;43.832;5.974;2023-01-23T08:58:38;95071.97;;;16.98;66.99
61674;BME280;47573;43.832;5.974;2023-01-23T09:05:18;95080.66;;;17.07;65.87
61674;BME280;47573;43.832;5.974;2023-01-23T09:12:00;95066.28;;;17.26;64.25
61674;BME280;47573;43.832;5.974;2023-01-23T09:18:40;95073.06;;;17.41;65.37
61674;BME280;47573;43.832;5.974;2023-01-23T09:25:21;95076.78;;;17.47;63.89
61674;BME280;47573;43.832;5.974;2023-01-23T09:32:03;95076.75;;;17.53;64.94
61674;BME280;47573;43.832;5.974;2023-01-23T09:38:46;95085.41;;;17.68;64.77
61674;BME280;47573;43.832;5.974;2023-01-23T09:45:27;95092.22;;;17.78;62.99
61674;BME280;47573;43.832;5.974;2023-01-23T09:52:12;95083.47;;;17.89;63.47
61674;BME280;47573;43.832;5.974;2023-01-23T09:59:01;95098.94;;;18.00;64.22
61674;BME280;47573;43.832;5.974;2023-01-23T10:05:49;95100.38;;;18.09;63.17
61674;BME280;47573;43.832;5.974;2023-01-23T10:12:43;95109.00;;;18.24;62.61
61674;BME280;47573;43.832;5.974;2023-01-23T10:19:41;95116.56;;;18.40;63.24
61674;BME280;47573;43.832;5.974;2023-01-23T10:26:25;95111.53;;;18.50;64.18
61674;BME280;47573;43.832;5.974;2023-01-23T10:33:13;95117.25;;;18.60;62.33
61674;BME280;47573;43.832;5.974;2023-01-23T10:39:57;95100.47;;;18.76;61.90
61674;BME280;47573;43.832;5.974;2023-01-23T10:46:42;95094.63;;;18.79;62.30
61674;BME280;47573;43.832;5.974;2023-01-23T10:53:26;95089.78;;;18.88;62.86
61674;BME280;47573;43.832;5.974;2023-01-23T11:00:19;95090.97;;;18.92;61.94
61674;BME280;47573;43.832;5.974;2023-01-23T11:07:04;95092.50;;;19.06;61.10
61674;BME280;47573;43.832;5.974;2023-01-23T11:13:48;95092.72;;;19.04;62.39
61674;BME280;47573;43.832;5.974;2023-01-23T11:20:30;95099.78;;;19.05;63.73
61674;BME280;47573;43.832;5.974;2023-01-23T11:27:17;95104.75;;;19.08;63.86
61674;BME280;47573;43.832;5.974;2023-01-23T11:34:04;95083.84;;;19.15;61.93
61674;BME280;47573;43.832;5.974;2023-01-23T11:40:49;95086.41;;;19.10;63.51
61674;BME280;47573;43.832;5.974;2023-01-23T11:47:45;95065.75;;;19.16;63.19
61674;BME280;47573;43.832;5.974;2023-01-23T11:54:45;95052.22;;;19.16;62.91
61674;BME280;47573;43.832;5.974;2023-01-23T12:01:35;95065.38;;;19.31;62.49
61674;BME280;47573;43.832;5.974;2023-01-23T12:08:27;95060.84;;;19.24;62.77
61674;BME280;47573;43.832;5.974;2023-01-23T12:15:21;95046.84;;;19.34;62.42
61674;BME280;47573;43.832;5.974;2023-01-23T12:22:09;95052.03;;;19.36;63.61
61674;BME280;47573;43.832;5.974;2023-01-23T12:29:25;95051.94;;;19.42;62.85
61674;BME280;47573;43.832;5.974;2023-01-23T12:36:21;95047.13;;;19.44;63.60
61674;BME280;47573;43.832;5.974;2023-01-23T12:43:09;95034.41;;;19.45;63.39
61674;BME280;47573;43.832;5.974;2023-01-23T12:49:54;95031.41;;;19.53;63.99
61674;BME280;47573;43.832;5.974;2023-01-23T12:56:38;95033.97;;;19.48;65.17
61674;BME280;47573;43.832;5.974;2023-01-23T13:03:31;95037.50;;;19.48;63.41
61674;BME280;47573;43.832;5.974;2023-01-23T13:10:40;95024.31;;;19.52;63.28
61674;BME280;47573;43.832;5.974;2023-01-23T13:17:34;95018.00;;;19.58;64.77
61674;BME280;47573;43.832;5.974;2023-01-23T13:24:28;95020.38;;;19.66;64.85
61674;BME280;47573;43.832;5.974;2023-01-23T13:31:25;95012.03;;;19.67;64.04
61674;BME280;47573;43.832;5.974;2023-01-23T13:38:27;95021.72;;;19.75;64.56
61674;BME280;47573;43.832;5.974;2023-01-23T13:45:32;95019.97;;;19.80;64.06
61674;BME280;47573;43.832;5.974;2023-01-23T13:52:14;95025.16;;;19.82;63.86
61674;BME280;47573;43.832;5.974;2023-01-23T13:58:57;95026.38;;;19.86;64.41
61674;BME280;47573;43.832;5.974;2023-01-23T14:05:38;95040.63;;;19.93;64.55
61674;BME280;47573;43.832;5.974;2023-01-23T14:12:27;95042.88;;;19.96;65.35
61674;BME280;47573;43.832;5.974;2023-01-23T14:19:21;95040.44;;;20.06;65.22
61674;BME280;47573;43.832;5.974;2023-01-23T14:26:04;95043.88;;;20.13;65.17
61674;BME280;47573;43.832;5.974;2023-01-23T14:32:45;95049.31;;;20.13;64.34
61674;BME280;47573;43.832;5.974;2023-01-23T14:39:28;95049.59;;;20.23;63.93
61674;BME280;47573;43.832;5.974;2023-01-23T14:46:15;95062.06;;;20.24;64.44
61674;BME280;47573;43.832;5.974;2023-01-23T14:52:57;95056.66;;;20.24;65.72
61674;BME280;47573;43.832;5.974;2023-01-23T14:59:40;95064.44;;;20.32;65.58
61674;BME280;47573;43.832;5.974;2023-01-23T15:06:22;95069.78;;;20.39;65.13
61674;BME280;47573;43.832;5.974;2023-01-23T15:13:06;95072.25;;;20.40;64.89
61674;BME280;47573;43.832;5.974;2023-01-23T15:19:50;95087.31;;;20.36;67.25
61674;BME280;47573;43.832;5.974;2023-01-23T15:26:33;95086.47;;;20.24;66.93
61674;BME280;47573;43.832;5.974;2023-01-23T15:33:25;95086.63;;;20.29;64.66
61674;BME280;47573;43.832;5.974;2023-01-23T15:40:16;95083.47;;;20.44;64.47
61674;BME280;47573;43.832;5.974;2023-01-23T15:46:57;95082.06;;;20.41;66.00
61674;BME280;47573;43.832;5.974;2023-01-23T15:53:38;95097.38;;;20.47;66.07
61674;BME280;47573;43.832;5.974;2023-01-23T16:00:22;95097.75;;;20.51;65.18
61674;BME280;47573;43.832;5.974;2023-01-23T16:07:05;95093.38;;;20.50;65.41
61674;BME280;47573;43.832;5.974;2023-01-23T16:13:46;95095.41;;;20.54;64.25
61674;BME280;47573;43.832;5.974;2023-01-23T16:20:30;95105.78;;;20.57;65.67
61674;BME280;47573;43.832;5.974;2023-01-23T16:27:17;95106.38;;;20.59;65.99
61674;BME280;47573;43.832;5.974;2023-01-23T16:33:58;95139.06;;;20.64;64.44
61674;BME280;47573;43.832;5.974;2023-01-23T16:40:40;95140.00;;;20.58;65.91
61674;BME280;47573;43.832;5.974;2023-01-23T16:47:21;95139.75;;;20.48;65.29
61674;BME280;47573;43.832;5.974;2023-01-23T16:54:01;95139.84;;;20.42;66.48
61674;BME280;47573;43.832;5.974;2023-01-23T17:00:44;95147.47;;;20.33;66.60
61674;BME280;47573;43.832;5.974;2023-01-23T17:07:24;95161.94;;;20.27;68.80
61674;BME280;47573;43.832;5.974;2023-01-23T17:14:08;95164.19;;;20.30;67.37
61674;BME280;47573;43.832;5.974;2023-01-23T17:20:52;95153.25;;;20.37;69.74
61674;BME280;47573;43.832;5.974;2023-01-23T17:27:33;95149.09;;;20.34;67.09
61674;BME280;47573;43.832;5.974;2023-01-23T17:34:21;95156.03;;;20.30;67.50
61674;BME280;47573;43.832;5.974;2023-01-23T17:41:03;95167.47;;;20.32;67.79
61674;BME280;47573;43.832;5.974;2023-01-23T17:47:46;95172.47;;;20.35;66.95
61674;BME280;47573;43.832;5.974;2023-01-23T17:54:28;95185.94;;;20.42;67.74
61674;BME280;47573;43.832;5.974;2023-01-23T18:01:21;95206.31;;;20.44;67.93
61674;BME280;47573;43.832;5.974;2023-01-23T18:08:02;95174.56;;;20.63;66.91
61674;BME280;47573;43.832;5.974;2023-01-23T18:14:45;95194.50;;;20.68;67.26
61674;BME280;47573;43.832;5.974;2023-01-23T18:21:29;95199.34;;;20.78;66.41
61674;BME280;47573;43.832;5.974;2023-01-23T18:28:17;95213.44;;;20.87;66.60
61674;BME280;47573;43.832;5.974;2023-01-23T18:35:03;95232.56;;;20.92;67.09
61674;BME280;47573;43.832;5.974;2023-01-23T18:42:00;95235.41;;;20.97;66.19
61674;BME280;47573;43.832;5.974;2023-01-23T18:48:43;95237.50;;;20.95;66.97
61674;BME280;47573;43.832;5.974;2023-01-23T18:55:29;95234.69;;;20.90;67.34
61674;BME280;47573;43.832;5.974;2023-01-23T19:02:22;95243.22;;;21.05;67.75
61674;BME280;47573;43.832;5.974;2023-01-23T19:09:12;95244.41;;;21.09;67.51
61674;BME280;47573;43.832;5.974;2023-01-23T19:16:01;95245.03;;;21.11;67.08
61674;BME280;47573;43.832;5.974;2023-01-23T19:22:57;95244.69;;;21.19;66.27
61674;BME280;47573;43.832;5.974;2023-01-23T19:29:41;95237.59;;;21.18;67.17
61674;BME280;47573;43.832;5.974;2023-01-23T19:36:22;95245.88;;;21.23;67.61
61674;BME280;47573;43.832;5.974;2023-01-23T19:43:04;95270.56;;;21.33;67.72
61674;BME280;47573;43.832;5.974;2023-01-23T19:49:45;95274.59;;;21.30;67.72
61674;BME280;47573;43.832;5.974;2023-01-23T19:56:26;95278.50;;;21.46;66.77
61674;BME280;47573;43.832;5.974;2023-01-23T20:03:10;95280.13;;;21.24;66.83
61674;BME280;47573;43.832;5.974;2023-01-23T20:09:51;95289.78;;;21.20;68.43
61674;BME280;47573;43.832;5.974;2023-01-23T20:16:31;95303.84;;;21.17;71.31
61674;BME280;47573;43.832;5.974;2023-01-23T20:23:13;95299.00;;;21.01;69.74
61674;BME280;47573;43.832;5.974;2023-01-23T20:29:54;95297.72;;;20.92;70.51
61674;BME280;47573;43.832;5.974;2023-01-23T20:36:34;95288.69;;;20.79;69.28
61674;BME280;47573;43.832;5.974;2023-01-23T20:43:16;95303.38;;;20.72;71.05
61674;BME280;47573;43.832;5.974;2023-01-23T20:49:57;95316.84;;;20.67;68.93
61674;BME280;47573;43.832;5.974;2023-01-23T20:56:38;95321.25;;;20.07;73.73
61674;BME280;47573;43.832;5.974;2023-01-23T21:03:20;95326.50;;;19.84;73.66
61674;BME280;47573;43.832;5.974;2023-01-23T21:10:00;95342.88;;;19.71;73.36
61674;BME280;47573;43.832;5.974;2023-01-23T21:16:41;95339.22;;;19.59;73.08
61674;BME280;47573;43.832;5.974;2023-01-23T21:23:23;95355.16;;;19.49;73.04
61674;BME280;47573;43.832;5.974;2023-01-23T21:30:04;95352.69;;;19.41;72.32
61674;BME280;47573;43.832;5.974;2023-01-23T21:36:45;95355.63;;;19.33;72.03
61674;BME280;47573;43.832;5.974;2023-01-23T21:43:27;95366.94;;;19.23;72.04
61674;BME280;47573;43.832;5.974;2023-01-23T21:50:09;95373.00;;;19.18;71.68
61674;BME280;47573;43.832;5.974;2023-01-23T21:56:49;95374.50;;;19.14;70.73
61674;BME280;47573;43.832;5.974;2023-01-23T22:03:34;95379.56;;;19.04;71.34
61674;BME280;47573;43.832;5.974;2023-01-23T22:10:15;95393.34;;;18.96;71.18
61674;BME280;47573;43.832;5.974;2023-01-23T22:16:56;95394.59;;;18.94;71.39
61674;BME280;47573;43.832;5.974;2023-01-23T22:23:37;95415.03;;;18.83;70.95
61674;BME280;47573;43.832;5.974;2023-01-23T22:30:18;95418.00;;;18.75;71.22
61674;BME280;47573;43.832;5.974;2023-01-23T22:36:59;95408.03;;;18.69;71.30
61674;BME280;47573;43.832;5.974;2023-01-23T22:43:40;95429.28;;;18.59;71.47
61674;BME280;47573;43.832;5.974;2023-01-23T22:50:21;95436.56;;;18.52;71.64
61674;BME280;47573;43.832;5.974;2023-01-23T22:57:02;95430.16;;;18.47;71.56
61674;BME280;47573;43.832;5.974;2023-01-23T23:03:44;95412.25;;;18.39;71.77
61674;BME280;47573;43.832;5.974;2023-01-23T23:10:24;95425.59;;;18.34;72.08
61674;BME280;47573;43.832;5.974;2023-01-23T23:17:05;95438.88;;;18.29;71.97
61674;BME280;47573;43.832;5.974;2023-01-23T23:23:47;95437.66;;;18.25;72.16
61674;BME280;47573;43.832;5.974;2023-01-23T23:30:27;95454.72;;;18.19;72.23
61674;BME280;47573;43.832;5.974;2023-01-23T23:37:08;95454.31;;;18.15;71.17
61674;BME280;47573;43.832;5.974;2023-01-23T23:43:50;95470.50;;;18.09;71.48
61674;BME280;47573;43.832;5.974;2023-01-23T23:50:31;95478.41;;;18.04;72.30
61674;BME280;47573;43.832;5.974;2023-01-23T23:57:11;95473.44;;;18.01;71.81
